Flight Track Log - Related Links

Times and Time Zones

All times are in EDT time to prevent confusion due to time zone crossing. See the SWA17 flight status page for this flight to view local times or setup timezone preferences in your user account.

Time Position Orientation Groundspeed Altitude Reporting Facility
EDT Latitude Longitude Course Direction KTS km/h feet Rate Location/Type
Sat 08:46:27 39.1500 -76.6500 131° Southeast 156 290 1.700  Level Potomac TRACON
Sat 08:47:27 39.1167 -76.6000 131° Southeast 217 402 3.700 2.368 Climbing Potomac TRACON
Sat 08:48:21 39.0667 -76.5667 153° Southeast 227 420 6.200 2.632 Climbing Potomac TRACON
Sat 08:49:21 39.0000 -76.5333 159° South 267 494 8.700 2.450 Climbing Potomac TRACON
Sat 08:50:21 38.9167 -76.4833 155° Southeast 313 579 11.100 2.600 Climbing Potomac TRACON
Sat 08:51:21 38.8333 -76.4833 180° South 362 671 13.900 1.300 Climbing Potomac TRACON
Sat 08:53:44 38.6439 -76.6522 215° Southwest 375 695 15.500 1.360 Climbing Washington Center
Sat 08:54:44 38.5619 -76.7200 213° Southwest 364 674 18.500 2.847 Climbing Washington Center
Sat 08:55:42 38.4600 -76.7158 178° South 347 642 21.100 2.269 Climbing Washington Center
Sat 08:56:43 38.3494 -76.7011 174° South 368 681 23.000 1.721 Climbing Washington Center
Sat 08:57:44 38.2433 -76.6836 173° South 376 697 24.600 1.488 Climbing Washington Center
Sat 08:58:44 38.1331 -76.6689 174° South 394 729 26.000 969 Climbing Washington Center
Sat 08:59:54 37.9956 -76.6483 173° South 406 752 26.700 1.385 Climbing Washington Center
Sat 09:00:54 37.8828 -76.6547 183° South 406 752 29.000 1.934 Climbing Washington Center
Sat 09:01:55 37.7658 -76.6689 185° South 406 752 30.600 1.488 Climbing Washington Center
Sat 09:02:55 37.6447 -76.6856 186° South 423 784 32.000 706 Climbing Washington Center
Sat 09:03:54 37.5258 -76.6994 185° South 428 793 32.000  Level Washington Center
Sat 09:04:55 37.4086 -76.7214 188° South 434 803 32.000  Level Washington Center
Sat 09:05:55 37.2914 -76.7692 198° South 434 803 32.000  Level Washington Center
Sat 09:06:56 37.1803 -76.8197 200° South 434 803 32.000  Level Washington Center
Sat 09:07:54 37.0714 -76.8675 199° South 434 803 32.000  Level Washington Center
Sat 09:08:54 36.9603 -76.9122 198° South 423 784 32.000 595 Level Washington Center
Sat 09:09:55 36.8492 -76.9572 198° South 423 784 33.200 1.339 Climbing Washington Center
Sat 09:10:55 36.7403 -77.0019 198° South 423 784 34.700 992 Climbing Washington Center
Sat 09:11:56 36.6392 -77.0750 210° Southwest 423 784 35.200 1.059 Climbing Washington Center
Sat 09:12:54 36.5442 -77.1614 216° Southwest 423 784 36.800 1.424 Climbing Washington Center
Sat 09:13:54 36.4514 -77.2472 217° Southwest 423 784 38.000 595 Climbing Washington Center
Sat 09:14:55 36.3583 -77.3303 216° Southwest 423 784 38.000  Level Washington Center
Sat 09:15:56 36.2611 -77.4158 215° Southwest 429 795 38.000  Level Washington Center
Sat 09:16:57 36.1703 -77.4961 216° Southwest 423 784 38.000  Level Washington Center
Sat 09:17:54 36.0750 -77.5786 215° Southwest 423 784 38.000  Level Washington Center
Sat 09:18:55 35.9817 -77.6583 215° Southwest 423 784 38.000  Level Washington Center
Sat 09:19:54 35.8842 -77.7428 215° Southwest 423 784 38.000  Level Washington Center
Sat 09:20:54 35.7911 -77.8222 215° Southwest 423 784 38.000  Level Washington Center
Sat 09:21:55 35.6956 -77.9042 215° Southwest 423 784 38.000  Level Washington Center
Sat 09:22:55 35.6022 -77.9856 215° Southwest 423 784 38.000  Level Washington Center
Sat 09:23:55 35.5089 -78.0644 215° Southwest 423 784 38.000  Level Washington Center
Sat 09:25:05 35.4111 -78.1431 213° Southwest 423 784 38.000  Level Washington Center
Sat 09:26:06 35.2944 -78.2336 212° Southwest 423 784 38.000  Level Washington Center
Sat 09:27:07 35.1989 -78.3092 213° Southwest 429 795 38.000 -32 Level Washington Center
Sat 09:29:12 34.9997 -78.4606 212° Southwest 422 782 37.900 -778 Descending Jacksonville Center
Sat 09:30:12 34.9022 -78.5339 212° Southwest 422 782 35.600 -2.600 Descending Jacksonville Center
Sat 09:31:12 34.8067 -78.6122 214° Southwest 422 782 32.700 -2.650 Descending Jacksonville Center
Sat 09:32:12 34.7092 -78.6825 211° Southwest 422 782 30.300 -2.350 Descending Jacksonville Center
Sat 09:33:12 34.6197 -78.7553 214° Southwest 417 772 28.000 -1.150 Descending Jacksonville Center
Sat 09:34:12 34.5281 -78.8225 211° Southwest 404 748 28.000  Level Jacksonville Center
Sat 09:35:12 34.4367 -78.8972 214° Southwest 385 713 28.000  Level Jacksonville Center
Sat 09:36:12 34.3531 -78.9642 213° Southwest 373 690 28.000 -300 Level Jacksonville Center
Sat 09:37:12 34.2672 -79.0233 210° Southwest 367 679 27.400 -800 Descending Jacksonville Center
Sat 09:38:12 34.1747 -79.0675 202° Southwest 361 668 26.400 -1.000 Descending Jacksonville Center
Sat 09:39:12 34.0842 -79.1067 200° South 356 660 25.400 -1.000 Descending Jacksonville Center
Sat 09:40:12 33.9894 -79.1481 200° South 356 660 24.400 -700 Descending Jacksonville Center
Sat 09:41:12 33.9031 -79.1894 202° Southwest 350 649 24.000 -200 Descending Jacksonville Center
Sat 09:42:12 33.8144 -79.2281 200° South 345 639 24.000  Level Jacksonville Center
Sat 09:43:12 33.7325 -79.2814 208° Southwest 345 639 24.000 -1.050 Level Jacksonville Center
Sat 09:44:12 33.6550 -79.3397 212° Southwest 340 629 21.900 -2.800 Descending Jacksonville Center
Sat 09:45:12 33.5711 -79.4028 212° Southwest 346 641 18.400 -3.200 Descending Jacksonville Center
Sat 09:46:12 33.4831 -79.4661 211° Southwest 361 668 15.500 -3.100 Descending Jacksonville Center
Sat 09:47:12 33.3953 -79.5342 213° Southwest 366 678 12.200 -2.300 Descending Jacksonville Center
Sat 09:48:12 33.3114 -79.5969 212° Southwest 372 689 10.900 -650 Descending Jacksonville Center
Sat 09:49:12 33.2356 -79.6542 212° Southwest 354 655 10.900 -397 Level Jacksonville Center
Sat 09:50:13 33.1619 -79.7117 213° Southwest 335 621 10.100 -1.050 Descending Jacksonville Center
Sat 09:51:12 33.0922 -79.7661 213° Southwest 322 597 8.800 -1.361 Descending Jacksonville Center
Sat 09:52:12 33.0267 -79.8181 214° Southwest 306 566 7.400 -1.400 Descending Jacksonville Center
Sat 09:53:12 32.9592 -79.8697 213° Southwest 298 552 6.000 -1.200 Descending Jacksonville Center
Sat 09:54:12 32.9039 -79.9136 214° Southwest 293 542 5.000 -545 Descending Jacksonville Center
Sat 09:55:13 32.8400 -79.9503 206° Southwest 278 515 4.900 -150 Descending Jacksonville Center
Sat 09:56:12 32.7822 -79.9769 201° Southwest 249 462 4.700 -203 Descending Jacksonville Center
Sat 09:58:00 32.8833 -80.0333 348° North  Level FlightAware Approximate
Sat 10:05:00 32.8986 -80.0405 348° North  Level Estimated
Sat 10:06:00 32.8986 -80.0405 348° North  Level Estimated
Sat 10:07:00 32.8986 -80.0405 348° North  Level Estimated
Sat 10:08:00 32.8986 -80.0405 348° North  Level Estimated
Sat 10:09:00 32.8986 -80.0405 348° North  Level Estimated
Sat 10:10:00 32.8986 -80.0405 348° North  Level Estimated
Sat 10:11:00 32.8986 -80.0405 348° North  Level Estimated
Sat 10:12:00 32.8986 -80.0405 348° North  Level Estimated

Login

Don't have an account? Register now (free) for customized features, flight alerts, and more!